Time;durP1;ratioP1;P1;durP2;ratioP2;P2;SDS_P1;SDS_P2;PMS_P1;PMS_P2;Temp;Humidity;BMP_temperature;BMP_pressure;BME280_temperature;BME280_humidity;BME280_pressure;Samples;Min_cycle;Max_cycle;Signal;HPM_P1;HPM_P2
2021/11/04 00:00:09;;;;;;;;;19.75;18.50;;;;;8.39;67.54;100285.41;4983311;28;45294;-68
2021/11/04 00:02:35;;;;;;;;;20.75;19.25;;;;;8.37;67.20;100282.06;5024117;28;45500;-67
2021/11/04 00:05:00;;;;;;;;;16.75;14.25;;;;;8.38;67.11;100278.50;4973282;28;46140;-68
2021/11/04 00:07:25;;;;;;;;;18.25;14.50;;;;;8.39;67.36;100274.94;5029891;28;45356;-69
2021/11/04 00:09:51;;;;;;;;;22.50;18.75;;;;;8.37;67.42;100265.53;5015938;28;45447;-67
2021/11/04 00:12:17;;;;;;;;;23.75;18.00;;;;;8.33;67.53;100269.28;4995501;28;45426;-69
2021/11/04 00:14:42;;;;;;;;;23.50;19.75;;;;;8.29;67.53;100263.47;4963304;28;46303;-67
2021/11/04 00:17:07;;;;;;;;;18.75;18.75;;;;;8.28;67.53;100261.78;4960524;28;45431;-68
2021/11/04 00:19:33;;;;;;;;;22.25;17.75;;;;;8.30;67.76;100272.13;5043299;28;45247;-70
2021/11/04 00:21:59;;;;;;;;;25.25;22.00;;;;;8.27;67.49;100268.78;4978866;28;45981;-67
2021/11/04 00:24:24;;;;;;;;;31.50;27.50;;;;;8.26;67.99;100271.53;4976334;28;47039;-70
2021/11/04 00:26:50;;;;;;;;;29.25;25.00;;;;;8.24;67.55;100273.44;4972227;28;45316;-70
2021/11/04 00:29:15;;;;;;;;;37.50;31.75;;;;;8.17;67.79;100261.72;4969175;28;45320;-69
2021/11/04 00:31:41;;;;;;;;;32.50;30.50;;;;;8.21;67.91;100271.88;4961117;28;45315;-71
2021/11/04 00:34:06;;;;;;;;;38.00;27.75;;;;;8.19;67.82;100267.69;5017035;28;45301;-70
2021/11/04 00:36:31;;;;;;;;;24.00;21.50;;;;;8.17;67.97;100269.56;4987394;28;45380;-69
2021/11/04 00:38:57;;;;;;;;;42.25;32.00;;;;;8.12;67.84;100267.28;4971081;28;45861;-68
2021/11/04 00:41:22;;;;;;;;;37.25;33.00;;;;;8.07;68.22;100269.41;4959665;28;45324;-67
2021/11/04 00:43:48;;;;;;;;;30.75;30.50;;;;;8.02;68.04;100272.34;4957776;28;46134;-68
2021/11/04 00:46:13;;;;;;;;;30.25;25.75;;;;;8.00;68.83;100274.22;4956955;28;45424;-69
2021/11/04 00:48:39;;;;;;;;;28.75;24.75;;;;;7.97;68.67;100277.06;4964726;28;45409;-69
2021/11/04 00:51:05;;;;;;;;;43.50;29.75;;;;;7.95;68.38;100276.31;4973744;28;45483;-67
2021/11/04 00:53:31;;;;;;;;;36.50;29.75;;;;;7.92;68.71;100279.16;5022380;28;45941;-68
2021/11/04 00:55:58;;;;;;;;;35.50;27.75;;;;;7.90;68.30;100275.78;4973205;28;45560;-69
2021/11/04 00:58:24;;;;;;;;;36.75;31.25;;;;;7.88;68.52;100275.09;5027653;28;45451;-67
2021/11/04 01:00:49;;;;;;;;;25.00;22.75;;;;;7.83;68.88;100271.97;4972021;28;45277;-69
2021/11/04 01:03:15;;;;;;;;;30.25;24.00;;;;;7.86;68.58;100271.72;4979852;28;46006;-69
2021/11/04 01:05:41;;;;;;;;;29.25;24.50;;;;;7.86;68.82;100276.97;5020417;28;45484;-68
2021/11/04 01:08:07;;;;;;;;;26.75;23.00;;;;;7.84;69.14;100268.41;4965928;28;45619;-69
2021/11/04 01:10:32;;;;;;;;;34.75;29.00;;;;;7.87;69.12;100279.47;4959214;28;45219;-68
2021/11/04 01:12:57;;;;;;;;;21.75;19.75;;;;;7.84;69.41;100268.41;4962330;28;45419;-68
2021/11/04 01:15:23;;;;;;;;;18.50;18.00;;;;;7.83;69.11;100274.56;4961749;28;45911;-70
2021/11/04 01:17:49;;;;;;;;;25.50;21.50;;;;;7.80;69.13;100273.00;4971899;28;45514;-69
2021/11/04 01:20:14;;;;;;;;;20.50;17.75;;;;;7.82;69.21;100275.50;4958810;28;45356;-69
2021/11/04 01:22:40;;;;;;;;;20.00;16.00;;;;;7.83;69.34;100278.00;5051972;27;46225;-67
2021/11/04 01:25:06;;;;;;;;;19.50;17.50;;;;;7.86;69.37;100274.34;5016403;28;45511;-68
2021/11/04 01:27:31;;;;;;;;;17.50;13.75;;;;;7.90;69.37;100270.56;4985137;28;45420;-68
2021/11/04 01:29:56;;;;;;;;;25.75;21.00;;;;;7.96;69.72;100277.16;4967116;28;45482;-69
2021/11/04 01:32:22;;;;;;;;;24.25;22.00;;;;;8.00;69.64;100274.22;5028820;28;46161;-69
2021/11/04 01:34:48;;;;;;;;;15.75;13.75;;;;;8.03;68.96;100273.16;5002237;28;45456;-68
2021/11/04 01:37:14;;;;;;;;;20.00;18.25;;;;;8.04;69.51;100286.16;4963542;28;45325;-70
2021/11/04 01:39:39;;;;;;;;;21.25;19.25;;;;;8.05;69.44;100279.94;4997164;28;45953;-68
2021/11/04 01:42:05;;;;;;;;;24.25;21.25;;;;;8.06;69.28;100289.47;5003392;28;46413;-68
2021/11/04 01:44:30;;;;;;;;;21.00;18.50;;;;;8.04;69.31;100293.16;4957609;28;49962;-70
2021/11/04 01:46:56;;;;;;;;;23.00;18.00;;;;;8.07;69.21;100306.84;4956333;28;45306;-70
2021/11/04 01:49:21;;;;;;;;;26.75;22.50;;;;;8.03;69.09;100289.72;4960670;28;45467;-69
2021/11/04 01:51:47;;;;;;;;;28.25;19.50;;;;;8.06;69.15;100299.94;4961532;28;47109;-68
2021/11/04 01:54:12;;;;;;;;;19.75;18.50;;;;;8.04;69.45;100301.84;4961478;28;50080;-68
2021/11/04 01:56:40;;;;;;;;;25.25;21.25;;;;;8.03;69.53;100291.47;4958403;28;45558;-67
2021/11/04 01:59:06;;;;;;;;;21.75;19.50;;;;;8.02;69.41;100298.50;5039308;28;45355;-68
2021/11/04 02:01:32;;;;;;;;;27.25;20.00;;;;;7.99;69.31;100298.72;4973888;28;46453;-68
2021/11/04 02:04:05;;;;;;;;;18.25;16.50;;;;;7.99;69.45;100298.72;4970713;28;45389;-68
2021/11/04 02:06:45;;;;;;;;;31.75;23.50;;;;;7.98;69.35;100290.94;4965881;28;45434;-69
2021/11/04 02:09:20;;;;;;;;;28.75;23.25;;;;;7.95;69.59;100291.19;4961092;28;45278;-69
2021/11/04 02:11:57;;;;;;;;;26.00;21.00;;;;;7.94;69.69;100287.75;4959155;28;46239;-66
2021/11/04 02:14:26;;;;;;;;;27.50;25.25;;;;;7.93;69.34;100278.22;5026908;28;45467;-68
2021/11/04 02:16:55;;;;;;;;;25.75;25.25;;;;;7.92;69.39;100287.81;5036537;28;45336;-67
2021/11/04 02:19:29;;;;;;;;;26.75;26.75;;;;;7.93;69.38;100283.44;4956870;28;45495;-69
2021/11/04 02:21:58;;;;;;;;;32.50;28.50;;;;;7.89;69.19;100285.44;4961007;28;46029;-68
2021/11/04 02:24:47;;;;;;;;;35.25;26.25;;;;;7.86;69.44;100282.19;4965566;28;45528;-68
2021/11/04 02:27:14;;;;;;;;;35.25;26.50;;;;;7.83;69.45;100295.50;4968938;28;45248;-68
2021/11/04 02:29:41;;;;;;;;;34.25;29.50;;;;;7.83;69.20;100295.50;4961148;28;45242;-67
2021/11/04 02:32:09;;;;;;;;;25.25;21.75;;;;;7.83;69.52;100295.50;4956932;28;46230;-68
2021/11/04 02:34:37;;;;;;;;;19.75;19.50;;;;;7.79;69.64;100292.25;4957596;28;46271;-68
2021/11/04 02:37:03;;;;;;;;;25.75;21.25;;;;;7.79;69.49;100296.66;5013228;28;45510;-68
2021/11/04 02:39:29;;;;;;;;;20.00;18.75;;;;;7.75;69.76;100299.47;4986495;28;45388;-68
2021/11/04 02:41:55;;;;;;;;;25.75;22.50;;;;;7.71;70.04;100300.63;4961095;28;46475;-69
2021/11/04 02:44:22;;;;;;;;;25.50;19.50;;;;;7.68;70.15;100300.84;4965250;28;45816;-68
2021/11/04 02:46:48;;;;;;;;;23.50;21.25;;;;;7.64;70.14;100298.53;5035614;28;45398;-68
2021/11/04 02:49:14;;;;;;;;;21.00;19.00;;;;;7.59;70.46;100304.09;5019713;28;45593;-68
2021/11/04 02:51:39;;;;;;;;;22.50;20.50;;;;;7.57;69.94;100308.56;4984708;28;47091;-66
2021/11/04 02:54:09;;;;;;;;;29.75;19.75;;;;;7.56;70.51;100312.13;4979958;28;45537;-67
2021/11/04 02:56:50;;;;;;;;;19.25;18.00;;;;;7.56;70.24;100325.19;5022691;28;45648;-68
2021/11/04 02:59:18;;;;;;;;;22.25;18.50;;;;;7.55;70.51;100310.44;4956922;28;45387;-67
2021/11/04 03:01:46;;;;;;;;;24.50;20.00;;;;;7.56;69.76;100319.97;4955992;28;46142;-67
2021/11/04 03:04:15;;;;;;;;;25.75;21.00;;;;;7.56;69.82;100328.66;4966159;28;45596;-67
2021/11/04 03:06:40;;;;;;;;;19.25;19.00;;;;;7.58;70.38;100320.72;4963620;28;45548;-66
2021/11/04 03:09:06;;;;;;;;;23.00;18.00;;;;;7.58;70.37;100320.72;4960766;28;45459;-66
2021/11/04 03:11:31;;;;;;;;;23.50;18.00;;;;;7.58;69.89;100320.72;4954577;28;46025;-68
2021/11/04 03:13:57;;;;;;;;;27.25;17.75;;;;;7.57;70.22;100326.88;5031505;28;45605;-67
2021/11/04 03:16:24;;;;;;;;;22.00;20.75;;;;;7.56;70.50;100327.81;4974045;28;45463;-66
2021/11/04 03:18:51;;;;;;;;;21.00;17.25;;;;;7.55;70.30;100328.75;5002721;28;45566;-67
2021/11/04 03:21:18;;;;;;;;;20.25;18.25;;;;;7.55;70.27;100326.13;4993425;28;46378;-66
2021/11/04 03:23:45;;;;;;;;;29.50;18.25;;;;;7.55;70.24;100324.38;4957478;28;45376;-66
2021/11/04 03:26:12;;;;;;;;;22.25;19.00;;;;;7.54;70.12;100320.09;5036518;28;45405;-67
2021/11/04 03:28:38;;;;;;;;;23.00;21.50;;;;;7.53;70.04;100314.97;4971802;28;46342;-66
2021/11/04 03:31:05;;;;;;;;;17.75;16.50;;;;;7.52;69.97;100315.91;5012277;28;46248;-67
2021/11/04 03:33:31;;;;;;;;;25.75;21.25;;;;;7.52;70.05;100329.78;5014997;28;46265;-68
2021/11/04 03:35:58;;;;;;;;;23.75;19.75;;;;;7.50;69.74;100331.69;5018613;28;45569;-67
2021/11/04 03:38:25;;;;;;;;;18.75;17.25;;;;;7.47;70.18;100334.50;5032552;28;45454;-66
2021/11/04 03:40:52;;;;;;;;;20.00;17.25;;;;;7.47;70.18;100333.66;4958808;28;48197;-69
2021/11/04 03:43:18;;;;;;;;;26.00;16.00;;;;;7.45;70.44;100333.78;4970864;28;45358;-68
2021/11/04 03:45:45;;;;;;;;;25.25;22.00;;;;;7.47;70.28;100339.72;4979346;28;45266;-69
2021/11/04 03:48:11;;;;;;;;;19.75;18.25;;;;;7.50;70.83;100338.66;4966839;28;45254;-68
2021/11/04 03:50:38;;;;;;;;;24.50;21.75;;;;;7.51;70.67;100345.59;4967300;28;46716;-66
2021/11/04 03:53:04;;;;;;;;;25.75;21.75;;;;;7.53;70.45;100343.72;5036978;28;45451;-67
2021/11/04 03:55:31;;;;;;;;;21.75;19.00;;;;;7.55;70.03;100347.03;5028102;28;45325;-68
2021/11/04 03:57:59;;;;;;;;;24.00;20.50;;;;;7.57;70.20;100350.41;4961758;28;45372;-68
2021/11/04 04:00:25;;;;;;;;;19.00;17.75;;;;;7.58;70.04;100352.91;4961917;28;46344;-68
2021/11/04 04:02:50;;;;;;;;;23.25;18.50;;;;;7.62;70.51;100347.50;4973705;28;45312;-69
2021/11/04 04:05:25;;;;;;;;;23.75;19.50;;;;;7.66;71.02;100347.16;4997725;28;45869;-69
2021/11/04 04:07:50;;;;;;;;;20.25;19.50;;;;;7.69;70.14;100351.34;5009346;28;45481;-69
2021/11/04 04:10:15;;;;;;;;;23.25;19.75;;;;;7.72;70.51;100354.59;4975348;28;46015;-69
2021/11/04 04:12:41;;;;;;;;;24.25;20.25;;;;;7.74;70.52;100344.84;4961206;28;47431;-69
2021/11/04 04:15:07;;;;;;;;;25.50;21.25;;;;;7.75;70.86;100343.91;4976053;28;45550;-68
2021/11/04 04:17:33;;;;;;;;;24.50;20.00;;;;;7.81;70.07;100344.44;5025275;28;45510;-68
2021/11/04 04:19:58;;;;;;;;;24.25;20.25;;;;;7.87;70.53;100355.31;5041239;28;45376;-68
2021/11/04 04:22:23;;;;;;;;;26.75;22.00;;;;;7.89;70.26;100355.22;5032294;28;45422;-68
2021/11/04 04:24:49;;;;;;;;;21.25;18.25;;;;;7.98;70.01;100353.72;5020386;28;45657;-69
2021/11/04 04:27:14;;;;;;;;;21.75;20.50;;;;;8.03;70.33;100352.47;5002964;28;45490;-68
2021/11/04 04:29:39;;;;;;;;;22.25;18.50;;;;;8.05;70.24;100355.81;4964905;28;46000;-69
2021/11/04 04:32:05;;;;;;;;;24.50;22.25;;;;;8.08;69.74;100365.22;4974215;28;45359;-68
2021/11/04 04:34:31;;;;;;;;;28.50;23.75;;;;;8.10;69.86;100361.56;5031962;28;45547;-69
2021/11/04 04:36:56;;;;;;;;;24.75;21.25;;;;;8.11;69.97;100362.41;4968790;28;45360;-69
2021/11/04 04:39:21;;;;;;;;;24.50;23.25;;;;;8.16;69.90;100367.31;4961979;28;47374;-69
2021/11/04 04:41:47;;;;;;;;;28.25;24.75;;;;;8.19;70.39;100369.72;4961168;28;45453;-68
2021/11/04 04:44:12;;;;;;;;;21.25;20.00;;;;;8.20;69.97;100367.00;5040048;28;45362;-68
2021/11/04 04:46:38;;;;;;;;;22.50;19.50;;;;;8.24;70.29;100372.88;5036990;28;45300;-68
2021/11/04 04:49:03;;;;;;;;;22.25;20.75;;;;;8.27;70.33;100383.09;4960810;28;45488;-69
2021/11/04 04:51:28;;;;;;;;;26.00;19.75;;;;;8.31;70.24;100379.31;4989330;28;45433;-68
2021/11/04 04:53:54;;;;;;;;;20.00;15.25;;;;;8.35;70.36;100383.41;5010992;28;45409;-68
2021/11/04 04:56:19;;;;;;;;;23.50;19.25;;;;;8.38;70.64;100379.72;4972099;28;45444;-69
2021/11/04 04:58:44;;;;;;;;;20.00;18.00;;;;;8.41;70.68;100390.81;5037003;28;46545;-68
2021/11/04 05:01:10;;;;;;;;;18.50;17.75;;;;;8.43;71.20;100381.09;5018858;28;45355;-70
2021/11/04 05:03:35;;;;;;;;;20.00;20.00;;;;;8.45;70.93;100383.59;5015578;28;45462;-68
2021/11/04 05:06:00;;;;;;;;;19.75;15.00;;;;;8.47;71.11;100375.66;5007665;28;45303;-69
2021/11/04 05:08:26;;;;;;;;;15.75;15.50;;;;;8.52;71.03;100373.56;4955876;28;47225;-69
2021/11/04 05:10:51;;;;;;;;;19.00;16.25;;;;;8.49;71.74;100373.78;5037651;28;45368;-70
2021/11/04 05:13:17;;;;;;;;;17.00;16.33;;;;;8.48;71.11;100378.16;4962018;28;45531;-68
2021/11/04 05:15:42;;;;;;;;;22.25;18.75;;;;;8.48;71.35;100380.78;4968084;28;45517;-67
2021/11/04 05:18:08;;;;;;;;;18.75;14.00;;;;;8.48;71.83;100379.97;4968225;28;46280;-68
2021/11/04 05:20:34;;;;;;;;;20.75;15.50;;;;;8.47;72.07;100376.50;4957339;28;45520;-67
2021/11/04 05:22:59;;;;;;;;;15.00;13.67;;;;;8.46;71.68;100368.75;5038108;28;45420;-69
2021/11/04 05:25:25;;;;;;;;;18.50;14.75;;;;;8.45;71.74;100374.91;5027210;28;45516;-68
2021/11/04 05:27:51;;;;;;;;;22.50;17.50;;;;;8.44;72.17;100379.31;4981253;28;46121;-68
2021/11/04 05:30:18;;;;;;;;;15.00;15.00;;;;;8.42;72.65;100379.41;4968482;28;45334;-69
2021/11/04 05:32:44;;;;;;;;;17.25;16.00;;;;;8.40;72.23;100383.09;4957529;28;45407;-66
2021/11/04 05:35:10;;;;;;;;;19.75;15.25;;;;;8.42;72.88;100389.06;4956824;28;45361;-67
2021/11/04 05:37:36;;;;;;;;;19.25;15.50;;;;;8.41;72.65;100390.81;4958432;28;45286;-68
2021/11/04 05:40:01;;;;;;;;;22.67;17.00;;;;;8.47;72.71;100396.59;4961440;28;45425;-67
2021/11/04 05:42:26;;;;;;;;;14.25;11.25;;;;;8.49;72.82;100394.72;4963063;28;45454;-67
2021/11/04 05:44:52;;;;;;;;;19.00;17.75;;;;;8.52;72.66;100399.72;4964277;28;45467;-68
2021/11/04 05:47:17;;;;;;;;;19.75;13.00;;;;;8.55;72.51;100402.97;4972170;28;46075;-69
2021/11/04 05:49:43;;;;;;;;;25.00;19.75;;;;;8.61;72.69;100408.72;4957391;28;45292;-66
2021/11/04 05:52:08;;;;;;;;;19.00;15.67;;;;;8.63;72.60;100398.97;4957377;28;45428;-68
2021/11/04 05:54:34;;;;;;;;;23.75;17.00;;;;;8.68;72.77;100399.47;4963737;28;45537;-68
2021/11/04 05:57:01;;;;;;;;;19.25;16.00;;;;;8.69;72.58;100399.38;4971354;28;46122;-68
2021/11/04 05:59:26;;;;;;;;;17.67;15.33;;;;;8.72;72.25;100400.94;4956951;28;45489;-67
2021/11/04 06:01:53;;;;;;;;;20.33;19.00;;;;;8.71;72.48;100399.28;4991799;28;45364;-68
2021/11/04 06:04:19;;;;;;;;;18.67;15.00;;;;;8.71;72.71;100405.31;4960949;28;45554;-68
2021/11/04 06:06:44;;;;;;;;;17.00;17.00;;;;;8.74;72.45;100410.38;4960522;28;45308;-67
2021/11/04 06:09:09;;;;;;;;;21.00;16.67;;;;;8.75;72.48;100405.94;4960947;28;45612;-68
2021/11/04 06:11:36;;;;;;;;;16.00;13.67;;;;;8.77;72.22;100419.78;4957644;28;45825;-68
2021/11/04 06:14:01;;;;;;;;;19.67;17.00;;;;;8.78;72.56;100415.38;5039879;28;45399;-68
2021/11/04 06:16:27;;;;;;;;;17.67;14.00;;;;;8.81;72.56;100421.22;4959811;28;45400;-68
2021/11/04 06:18:52;;;;;;;;;20.00;18.33;;;;;8.85;73.26;100425.31;5004913;28;45446;-68
2021/11/04 06:21:18;;;;;;;;;15.00;14.67;;;;;8.93;72.33;100440.47;4994667;28;45502;-68
2021/11/04 06:23:43;;;;;;;;;27.25;20.25;;;;;8.92;72.72;100433.53;4965691;28;46704;-67
2021/11/04 06:26:09;;;;;;;;;19.50;14.75;;;;;8.93;72.90;100430.00;4956066;28;48623;-69
2021/11/04 06:28:34;;;;;;;;;18.00;16.67;;;;;8.95;72.57;100437.72;4969828;28;45594;-68
2021/11/04 06:31:00;;;;;;;;;19.25;17.00;;;;;8.93;72.61;100437.03;4960397;28;45341;-68
2021/11/04 06:33:25;;;;;;;;;21.50;17.75;;;;;8.95;72.78;100438.56;4984838;28;45365;-68
2021/11/04 06:35:54;;;;;;;;;21.75;15.25;;;;;8.95;72.78;100442.97;4960509;28;45851;-67
2021/11/04 06:38:20;;;;;;;;;16.50;15.75;;;;;8.91;73.01;100447.59;4964534;28;45482;-68
2021/11/04 06:40:46;;;;;;;;;17.67;15.67;;;;;8.86;73.37;100439.22;5051278;27;45455;-68
2021/11/04 06:43:12;;;;;;;;;21.00;15.67;;;;;8.78;73.18;100445.00;5002119;28;45276;-69
2021/11/04 06:45:40;;;;;;;;;20.00;15.25;;;;;8.78;73.42;100446.81;4964378;28;46427;-67
2021/11/04 06:48:13;;;;;;;;;22.33;16.00;;;;;8.75;73.53;100450.47;4960783;28;45309;-67
2021/11/04 06:50:40;;;;;;;;;20.67;17.00;;;;;8.74;73.45;100454.88;4965404;28;45432;-69
2021/11/04 06:53:11;;;;;;;;;15.00;15.00;;;;;8.76;73.88;100454.78;4956829;28;45437;-67
2021/11/04 06:55:43;;;;;;;;;22.25;18.00;;;;;8.77;73.70;100466.06;5034056;28;45392;-67
2021/11/04 06:58:14;;;;;;;;;18.33;16.67;;;;;8.74;73.78;100462.75;4961743;28;45316;-68
2021/11/04 07:00:45;;;;;;;;;24.00;20.00;;;;;8.75;74.36;100466.19;4962476;28;45563;-67
2021/11/04 07:03:27;;;;;;;;;20.00;16.33;;;;;8.74;74.42;100469.75;4968055;28;45273;-67
2021/11/04 07:06:06;;;;;;;;;19.67;19.00;;;;;8.76;74.53;100473.09;4959192;28;46241;-67
2021/11/04 07:08:39;;;;;;;;;19.67;15.00;;;;;8.80;74.68;100476.34;4958666;28;45501;-67
2021/11/04 07:11:04;;;;;;;;;15.33;15.33;;;;;8.83;74.56;100483.97;5043544;28;45400;-69
2021/11/04 07:13:31;;;;;;;;;20.67;15.67;;;;;8.83;74.35;100486.59;4966359;28;45343;-68
2021/11/04 07:15:59;;;;;;;;;25.75;19.75;;;;;8.89;74.14;100483.56;4990087;28;48431;-68
2021/11/04 07:18:25;;;;;;;;;19.33;15.00;;;;;8.91;74.36;100479.03;4995446;28;45378;-67
2021/11/04 07:21:10;;;;;;;;;18.33;14.00;;;;;8.95;74.32;100484.88;5014189;28;45459;-67
2021/11/04 07:23:47;;;;;;;;;18.00;16.00;;;;;8.99;74.48;100495.06;4968671;28;45490;-69
2021/11/04 07:26:13;;;;;;;;;20.33;17.00;;;;;9.00;74.34;100493.25;4962129;28;46155;-66
2021/11/04 07:28:40;;;;;;;;;19.00;17.00;;;;;9.03;74.26;100504.38;5035055;28;45320;-66
2021/11/04 07:31:10;;;;;;;;;21.00;15.00;;;;;9.04;74.25;100506.03;5013507;28;45391;-69
2021/11/04 07:33:41;;;;;;;;;16.00;16.00;;;;;9.08;74.28;100512.72;4981355;28;45507;-67
2021/11/04 07:36:07;;;;;;;;;18.67;14.33;;;;;9.11;73.79;100511.69;4959590;28;46999;-67
2021/11/04 07:38:34;;;;;;;;;21.67;15.67;;;;;9.13;74.27;100512.38;4971757;28;45466;-67
2021/11/04 07:40:59;;;;;;;;;19.00;16.67;;;;;9.13;74.37;100519.41;4970374;28;45958;-68
2021/11/04 07:43:28;;;;;;;;;19.33;15.00;;;;;9.18;74.16;100523.38;4958731;28;45439;-67
2021/11/04 07:45:54;;;;;;;;;16.00;15.00;;;;;9.23;73.98;100528.31;5004593;28;47132;-67
2021/11/04 07:48:22;;;;;;;;;20.33;14.67;;;;;9.29;74.29;100538.34;4994079;28;45311;-70
2021/11/04 07:50:49;;;;;;;;;19.67;14.33;;;;;9.33;73.92;100534.56;4957377;28;45495;-68
2021/11/04 07:53:15;;;;;;;;;12.00;10.00;;;;;9.38;73.68;100544.69;5034252;28;45357;-68
2021/11/04 07:55:40;;;;;;;;;10.00;7.33;;;;;9.48;74.12;100544.88;5033823;28;45997;-68
2021/11/04 07:58:06;;;;;;;;;10.00;8.00;;;;;9.56;73.49;100543.38;4958531;28;45371;-67
2021/11/04 08:00:31;;;;;;;;;11.00;9.33;;;;;9.65;73.61;100547.13;4971872;28;45400;-69
2021/11/04 08:02:57;;;;;;;;;13.67;11.00;;;;;9.67;73.07;100550.47;4962969;28;45397;-68
2021/11/04 08:05:23;;;;;;;;;11.33;11.33;;;;;9.69;73.37;100556.44;4960107;28;46969;-69
2021/11/04 08:07:49;;;;;;;;;11.00;11.00;;;;;9.72;73.17;100553.56;4958448;28;45359;-68
2021/11/04 08:10:16;;;;;;;;;10.00;8.00;;;;;9.74;72.58;100551.69;4963308;28;45380;-68
2021/11/04 08:12:43;;;;;;;;;11.00;7.33;;;;;9.78;72.50;100556.69;4971373;28;45514;-68
2021/11/04 08:15:10;;;;;;;;;9.00;6.67;;;;;9.86;73.11;100554.34;4970467;28;45495;-68
2021/11/04 08:17:36;;;;;;;;;8.67;8.67;;;;;9.97;72.21;100561.44;4961275;28;45537;-68
2021/11/04 08:20:04;;;;;;;;;9.33;9.33;;;;;9.98;72.23;100563.94;4958492;28;45363;-69
2021/11/04 08:22:29;;;;;;;;;9.67;9.00;;;;;10.01;71.98;100568.94;4998363;28;45348;-68
2021/11/04 08:24:54;;;;;;;;;10.00;8.00;;;;;10.03;72.15;100572.31;4964171;28;45455;-69
2021/11/04 08:27:20;;;;;;;;;9.00;5.33;;;;;10.07;72.37;100579.00;4962008;28;45474;-69
2021/11/04 08:29:46;;;;;;;;;5.67;5.67;;;;;10.13;71.50;100582.97;4974293;28;45370;-69
2021/11/04 08:32:12;;;;;;;;;11.67;8.33;;;;;10.13;71.75;100584.75;5004753;28;45511;-68
2021/11/04 08:34:38;;;;;;;;;13.00;9.33;;;;;10.10;71.82;100579.72;4993098;28;45350;-69
2021/11/04 08:37:04;;;;;;;;;10.00;8.67;;;;;10.11;71.38;100586.66;5013889;28;45337;-68
2021/11/04 08:39:30;;;;;;;;;8.67;7.00;;;;;10.13;71.70;100592.63;4993376;28;45442;-70
2021/11/04 08:41:56;;;;;;;;;9.67;9.00;;;;;10.14;71.80;100595.13;4971778;28;45457;-69
2021/11/04 08:44:22;;;;;;;;;9.00;6.67;;;;;10.17;72.14;100599.31;4970977;28;46086;-70
2021/11/04 08:46:47;;;;;;;;;8.33;6.00;;;;;10.18;71.76;100591.31;4967406;28;45387;-67
2021/11/04 08:49:12;;;;;;;;;4.67;4.67;;;;;10.22;72.08;100594.53;4957286;28;45491;-68
2021/11/04 08:51:38;;;;;;;;;7.33;6.00;;;;;10.29;71.36;100592.28;4965631;28;45372;-69
2021/11/04 08:54:03;;;;;;;;;8.33;7.33;;;;;10.31;71.43;100601.72;4971578;28;46478;-68
2021/11/04 08:56:29;;;;;;;;;7.67;7.67;;;;;10.33;70.97;100605.09;4967428;28;45317;-72
2021/11/04 08:58:54;;;;;;;;;10.00;8.67;;;;;10.37;71.07;100606.56;5022442;28;45847;-68
2021/11/04 09:01:19;;;;;;;;;9.67;7.33;;;;;10.42;71.14;100605.38;4970824;28;45327;-68
2021/11/04 09:03:45;;;;;;;;;9.00;7.33;;;;;10.44;71.24;100612.19;4965086;28;48437;-68
2021/11/04 09:06:10;;;;;;;;;5.33;4.00;;;;;10.47;70.62;100617.22;4962572;28;45456;-66
2021/11/04 09:08:36;;;;;;;;;10.00;6.00;;;;;10.51;70.73;100623.09;4968936;28;45561;-67
2021/11/04 09:11:01;;;;;;;;;8.67;5.33;;;;;10.52;70.44;100619.47;4988315;28;45456;-68
2021/11/04 09:13:27;;;;;;;;;9.67;8.00;;;;;10.52;70.53;100616.84;4996216;28;46051;-67
2021/11/04 09:15:52;;;;;;;;;5.00;4.00;;;;;10.51;70.55;100623.09;4988388;28;45360;-66
2021/11/04 09:18:19;;;;;;;;;5.00;5.00;;;;;10.52;70.58;100625.59;4974094;28;45582;-66
2021/11/04 09:20:45;;;;;;;;;7.33;7.33;;;;;10.54;70.51;100633.34;4968753;28;45573;-69
2021/11/04 09:23:11;;;;;;;;;5.67;5.67;;;;;10.56;70.40;100636.72;4956644;28;47222;-69
2021/11/04 09:25:37;;;;;;;;;5.33;4.00;;;;;10.55;70.24;100638.47;4972667;28;45476;-73
2021/11/04 09:28:03;;;;;;;;;7.67;4.00;;;;;10.60;70.45;100638.13;4972795;28;45375;-71
2021/11/04 09:30:30;;;;;;;;;5.00;4.00;;;;;10.64;70.21;100639.56;4965995;28;45308;-71
2021/11/04 09:32:56;;;;;;;;;5.00;5.00;;;;;10.67;69.62;100641.97;4965649;28;45459;-71
2021/11/04 09:35:23;;;;;;;;;5.33;4.00;;;;;10.73;69.01;100654.63;4978725;28;45465;-70
2021/11/04 09:37:49;;;;;;;;;3.67;3.67;;;;;10.75;69.12;100644.00;5037324;28;45490;-74
2021/11/04 09:40:17;;;;;;;;;5.33;3.67;;;;;10.78;69.15;100645.56;4960550;28;45382;-73
2021/11/04 09:42:49;;;;;;;;;6.00;3.00;;;;;10.78;67.71;100641.16;4968730;28;47051;-73
2021/11/04 09:45:15;;;;;;;;;4.00;3.00;;;;;10.73;68.40;100644.13;4968142;28;45549;-71
2021/11/04 09:47:40;;;;;;;;;4.33;4.00;;;;;10.76;68.47;100650.94;4958700;28;45434;-73
2021/11/04 09:50:09;;;;;;;;;4.00;2.00;;;;;10.78;68.63;100656.94;5039766;28;45497;-74
2021/11/04 09:52:38;;;;;;;;;6.00;3.33;;;;;10.79;68.17;100653.31;4972792;28;47235;-73
2021/11/04 09:55:18;;;;;;;;;4.00;4.00;;;;;10.81;67.74;100659.31;4966023;28;45502;-73
2021/11/04 09:57:45;;;;;;;;;4.00;4.00;;;;;10.82;68.17;100661.00;4965478;28;45518;-73
2021/11/04 10:00:11;;;;;;;;;5.33;3.00;;;;;10.88;67.96;100662.31;4961756;28;45441;-75
2021/11/04 10:02:39;;;;;;;;;9.67;6.00;;;;;10.90;68.17;100655.16;4959618;28;47292;-74
2021/11/04 10:05:10;;;;;;;;;5.33;5.33;;;;;10.93;67.92;100665.41;4971347;28;45572;-72
2021/11/04 10:07:50;;;;;;;;;6.00;5.00;;;;;10.99;67.51;100674.59;4958072;28;45349;-73
2021/11/04 10:10:18;;;;;;;;;7.00;5.00;;;;;10.99;67.99;100669.34;5019262;28;45415;-72
2021/11/04 10:13:04;;;;;;;;;5.00;3.67;;;;;11.02;67.38;100672.59;5013615;28;45753;-74
2021/11/04 10:15:32;;;;;;;;;4.33;4.33;;;;;11.07;66.97;100673.06;4987702;28;45458;-72
2021/11/04 10:18:16;;;;;;;;;8.00;3.00;;;;;11.09;66.74;100680.00;4965343;28;45433;-75
2021/11/04 10:20:56;;;;;;;;;5.00;3.67;;;;;11.11;66.94;100678.94;4967770;28;45478;-73
2021/11/04 10:23:23;;;;;;;;;4.00;2.00;;;;;11.12;66.28;100672.72;4956767;28;46936;-76
2021/11/04 10:25:49;;;;;;;;;4.00;4.00;;;;;11.12;66.66;100687.66;5035480;28;45342;-72
2021/11/04 10:28:28;;;;;;;;;4.33;3.00;;;;;11.12;65.75;100679.75;5018772;28;45452;-73
2021/11/04 10:30:58;;;;;;;;;5.33;4.00;;;;;11.10;65.03;100679.06;5010309;28;45535;-72
2021/11/04 10:33:29;;;;;;;;;8.00;4.00;;;;;11.08;65.27;100689.69;4994216;28;45469;-72
2021/11/04 10:36:02;;;;;;;;;2.33;2.33;;;;;11.05;66.01;100685.50;4960422;28;45415;-71
2021/11/04 10:38:39;;;;;;;;;3.00;3.00;;;;;11.06;65.66;100691.59;4959398;28;47895;-73
2021/11/04 10:41:07;;;;;;;;;7.67;6.33;;;;;11.09;65.84;100688.72;4974016;28;45604;-74
2021/11/04 10:43:35;;;;;;;;;7.67;4.00;;;;;11.11;65.87;100693.88;4959755;28;46309;-73
2021/11/04 10:46:07;;;;;;;;;3.00;3.00;;;;;11.13;65.66;100691.94;5008861;28;45952;-73
2021/11/04 10:48:36;;;;;;;;;2.33;2.33;;;;;11.12;65.01;100685.00;4987050;28;45591;-73
2021/11/04 10:51:02;;;;;;;;;4.00;3.00;;;;;11.16;65.48;100694.38;4961557;28;45338;-72
2021/11/04 10:53:28;;;;;;;;;4.00;3.33;;;;;11.21;65.26;100700.09;4956179;28;46208;-74
2021/11/04 10:56:14;;;;;;;;;4.00;3.00;;;;;11.28;65.53;100695.19;5016911;28;45539;-71
2021/11/04 10:58:40;;;;;;;;;2.67;2.67;;;;;11.38;65.37;100702.25;4954433;28;45478;-71
2021/11/04 11:01:05;;;;;;;;;6.00;3.00;;;;;11.52;64.73;100702.94;5013750;28;45448;-70
2021/11/04 11:03:32;;;;;;;;;4.67;4.67;;;;;11.59;64.11;100693.63;5013992;28;47263;-72
2021/11/04 11:06:05;;;;;;;;;3.00;3.00;;;;;11.70;63.34;100698.88;5011977;28;45395;-71
2021/11/04 11:08:31;;;;;;;;;7.67;7.67;;;;;11.79;62.70;100699.09;4970505;28;45393;-72
2021/11/04 11:10:57;;;;;;;;;4.33;4.33;;;;;11.86;62.53;100716.09;4956301;28;45348;-73
2021/11/04 11:13:22;;;;;;;;;4.33;4.33;;;;;11.88;61.84;100701.00;4973860;28;45382;-71
2021/11/04 11:15:55;;;;;;;;;2.67;2.67;;;;;11.88;62.00;100707.09;4966091;28;45261;-70
2021/11/04 11:18:25;;;;;;;;;6.00;3.00;;;;;11.94;62.18;100707.56;4964843;28;45525;-71